Adams, Nebraska
Current Conditions -  °F | °C
As of 5:55 PM on Saturday 25 Oct 2014 (Local Time) from KBIE Reporting Station
Clear Clear  
Wind Chill: 73°   Ceiling: Unl
Heat Index: 73°   Visibility: 10mi
Dew Point: 49°   Wind: 5mph
Humidity: 42%   Direction: 70°ENE
Pressure: 30.02"   Gusts: NA
Location:  40.46°N, 96.51°W
Report Text: KBIE 252255Z AUTO 07004KT 10SM CLR 23/09 A3002 RMK AO2 T02270092
Loading
Personal Weather Stations






























Interactive Weather Map
Tropical Storm Tracking
New forecast layout! Learn more

10-Day Weather Forecast

Advertisements
Track Severe Weather on mobile